sensor_id;sensor_type;location;lat;lon;timestamp;temperature;humidity
3350;DHT22;1688;51.000;13.684;2022-07-12T00:02:08;16.50;92.40
3350;DHT22;1688;51.000;13.684;2022-07-12T00:04:34;16.50;92.50
3350;DHT22;1688;51.000;13.684;2022-07-12T00:06:59;16.50;92.80
3350;DHT22;1688;51.000;13.684;2022-07-12T00:09:25;16.50;93.30
3350;DHT22;1688;51.000;13.684;2022-07-12T00:11:51;16.50;93.40
3350;DHT22;1688;51.000;13.684;2022-07-12T00:14:17;16.50;93.50
3350;DHT22;1688;51.000;13.684;2022-07-12T00:16:43;16.50;94.40
3350;DHT22;1688;51.000;13.684;2022-07-12T00:19:08;16.50;94.90
3350;DHT22;1688;51.000;13.684;2022-07-12T00:21:35;16.50;95.10
3350;DHT22;1688;51.000;13.684;2022-07-12T00:24:00;16.60;95.80
3350;DHT22;1688;51.000;13.684;2022-07-12T00:26:26;16.60;96.80
3350;DHT22;1688;51.000;13.684;2022-07-12T00:28:52;16.60;97.50
3350;DHT22;1688;51.000;13.684;2022-07-12T00:31:18;16.60;97.50
3350;DHT22;1688;51.000;13.684;2022-07-12T00:33:43;16.60;98.10
3350;DHT22;1688;51.000;13.684;2022-07-12T00:36:10;16.60;98.50
3350;DHT22;1688;51.000;13.684;2022-07-12T00:38:35;16.60;99.30
3350;DHT22;1688;51.000;13.684;2022-07-12T00:41:01;16.60;99.40
3350;DHT22;1688;51.000;13.684;2022-07-12T00:43:27;16.60;99.60
3350;DHT22;1688;51.000;13.684;2022-07-12T00:45:53;16.60;99.90
3350;DHT22;1688;51.000;13.684;2022-07-12T00:48:19;16.60;99.90
3350;DHT22;1688;51.000;13.684;2022-07-12T00:50:46;16.60;99.90
3350;DHT22;1688;51.000;13.684;2022-07-12T00:53:13;16.60;99.90
3350;DHT22;1688;51.000;13.684;2022-07-12T00:55:40;16.60;99.90
3350;DHT22;1688;51.000;13.684;2022-07-12T00:58:06;16.60;99.90
3350;DHT22;1688;51.000;13.684;2022-07-12T01:00:32;16.50;99.90
3350;DHT22;1688;51.000;13.684;2022-07-12T01:03:01;16.50;99.90
3350;DHT22;1688;51.000;13.684;2022-07-12T01:05:28;16.50;99.90
3350;DHT22;1688;51.000;13.684;2022-07-12T01:07:55;16.50;99.90
3350;DHT22;1688;51.000;13.684;2022-07-12T01:10:21;16.50;99.90
3350;DHT22;1688;51.000;13.684;2022-07-12T01:12:47;16.50;99.90
3350;DHT22;1688;51.000;13.684;2022-07-12T01:15:13;16.60;99.90
3350;DHT22;1688;51.000;13.684;2022-07-12T01:17:39;16.70;99.90
3350;DHT22;1688;51.000;13.684;2022-07-12T01:20:06;16.60;99.90
3350;DHT22;1688;51.000;13.684;2022-07-12T01:22:35;16.60;99.90
3350;DHT22;1688;51.000;13.684;2022-07-12T01:25:03;16.60;99.90
3350;DHT22;1688;51.000;13.684;2022-07-12T01:27:37;16.60;99.90
3350;DHT22;1688;51.000;13.684;2022-07-12T01:30:04;16.60;99.90
3350;DHT22;1688;51.000;13.684;2022-07-12T01:32:30;16.60;99.90
3350;DHT22;1688;51.000;13.684;2022-07-12T01:37:24;16.60;99.90
3350;DHT22;1688;51.000;13.684;2022-07-12T01:39:53;16.50;99.90
3350;DHT22;1688;51.000;13.684;2022-07-12T01:42:23;16.50;99.90
3350;DHT22;1688;51.000;13.684;2022-07-12T01:44:50;16.50;99.90
3350;DHT22;1688;51.000;13.684;2022-07-12T01:47:17;16.50;99.90
3350;DHT22;1688;51.000;13.684;2022-07-12T01:49:43;16.50;99.90
3350;DHT22;1688;51.000;13.684;2022-07-12T01:52:09;16.50;99.90
3350;DHT22;1688;51.000;13.684;2022-07-12T01:54:35;16.60;99.90
3350;DHT22;1688;51.000;13.684;2022-07-12T01:57:04;16.60;99.90
3350;DHT22;1688;51.000;13.684;2022-07-12T01:59:30;16.60;99.90
3350;DHT22;1688;51.000;13.684;2022-07-12T02:01:57;16.70;99.90
3350;DHT22;1688;51.000;13.684;2022-07-12T02:04:23;16.60;99.90
3350;DHT22;1688;51.000;13.684;2022-07-12T02:06:49;16.60;99.90
3350;DHT22;1688;51.000;13.684;2022-07-12T02:09:17;16.60;99.90
3350;DHT22;1688;51.000;13.684;2022-07-12T02:11:44;16.70;99.90
3350;DHT22;1688;51.000;13.684;2022-07-12T02:14:10;16.60;99.90
3350;DHT22;1688;51.000;13.684;2022-07-12T02:16:38;16.70;99.90
3350;DHT22;1688;51.000;13.684;2022-07-12T02:19:05;16.70;99.90
3350;DHT22;1688;51.000;13.684;2022-07-12T02:21:31;16.70;99.90
3350;DHT22;1688;51.000;13.684;2022-07-12T02:23:57;16.70;99.90
3350;DHT22;1688;51.000;13.684;2022-07-12T02:26:23;16.60;99.90
3350;DHT22;1688;51.000;13.684;2022-07-12T02:28:49;16.70;99.90
3350;DHT22;1688;51.000;13.684;2022-07-12T02:31:15;16.70;99.90
3350;DHT22;1688;51.000;13.684;2022-07-12T02:33:41;16.70;99.90
3350;DHT22;1688;51.000;13.684;2022-07-12T02:36:07;16.70;99.90
3350;DHT22;1688;51.000;13.684;2022-07-12T02:38:33;16.70;99.90
3350;DHT22;1688;51.000;13.684;2022-07-12T02:40:59;16.80;99.90
3350;DHT22;1688;51.000;13.684;2022-07-12T02:43:30;16.70;99.90
3350;DHT22;1688;51.000;13.684;2022-07-12T02:46:08;16.70;99.90
3350;DHT22;1688;51.000;13.684;2022-07-12T02:48:36;16.70;99.90
3350;DHT22;1688;51.000;13.684;2022-07-12T02:51:02;16.70;99.90
3350;DHT22;1688;51.000;13.684;2022-07-12T02:53:29;16.70;99.90
3350;DHT22;1688;51.000;13.684;2022-07-12T02:55:55;16.70;99.90
3350;DHT22;1688;51.000;13.684;2022-07-12T02:58:21;16.60;99.90
3350;DHT22;1688;51.000;13.684;2022-07-12T03:00:47;16.60;99.90
3350;DHT22;1688;51.000;13.684;2022-07-12T03:03:13;16.60;99.90
3350;DHT22;1688;51.000;13.684;2022-07-12T03:05:40;16.60;99.90
3350;DHT22;1688;51.000;13.684;2022-07-12T03:08:07;16.70;99.90
3350;DHT22;1688;51.000;13.684;2022-07-12T03:10:33;16.70;99.90
3350;DHT22;1688;51.000;13.684;2022-07-12T03:12:59;16.70;99.90
3350;DHT22;1688;51.000;13.684;2022-07-12T03:15:26;16.70;99.90
3350;DHT22;1688;51.000;13.684;2022-07-12T03:17:54;16.70;99.90
3350;DHT22;1688;51.000;13.684;2022-07-12T03:20:19;16.70;99.90
3350;DHT22;1688;51.000;13.684;2022-07-12T03:22:45;16.70;99.90
3350;DHT22;1688;51.000;13.684;2022-07-12T03:25:14;16.60;99.90
3350;DHT22;1688;51.000;13.684;2022-07-12T03:27:40;16.60;99.90
3350;DHT22;1688;51.000;13.684;2022-07-12T03:30:07;16.40;99.90
3350;DHT22;1688;51.000;13.684;2022-07-12T03:32:34;16.40;99.90
3350;DHT22;1688;51.000;13.684;2022-07-12T03:34:59;16.20;99.90
3350;DHT22;1688;51.000;13.684;2022-07-12T03:37:27;16.30;99.90
3350;DHT22;1688;51.000;13.684;2022-07-12T03:39:53;16.30;99.90
3350;DHT22;1688;51.000;13.684;2022-07-12T03:42:22;16.30;99.90
3350;DHT22;1688;51.000;13.684;2022-07-12T03:44:48;16.30;99.90
3350;DHT22;1688;51.000;13.684;2022-07-12T03:47:13;16.30;99.90
3350;DHT22;1688;51.000;13.684;2022-07-12T03:49:39;16.30;99.90
3350;DHT22;1688;51.000;13.684;2022-07-12T03:52:05;16.30;99.90
3350;DHT22;1688;51.000;13.684;2022-07-12T03:54:32;16.30;99.90
3350;DHT22;1688;51.000;13.684;2022-07-12T03:56:58;16.30;99.90
3350;DHT22;1688;51.000;13.684;2022-07-12T03:59:42;16.40;99.90
3350;DHT22;1688;51.000;13.684;2022-07-12T04:02:09;16.40;99.90
3350;DHT22;1688;51.000;13.684;2022-07-12T04:04:34;16.50;99.90
3350;DHT22;1688;51.000;13.684;2022-07-12T04:07:00;16.40;99.90
3350;DHT22;1688;51.000;13.684;2022-07-12T04:09:26;16.40;99.90
3350;DHT22;1688;51.000;13.684;2022-07-12T04:11:52;16.40;99.90
3350;DHT22;1688;51.000;13.684;2022-07-12T04:14:18;16.50;99.90
3350;DHT22;1688;51.000;13.684;2022-07-12T04:16:43;16.40;99.90
3350;DHT22;1688;51.000;13.684;2022-07-12T04:19:10;16.50;99.90
3350;DHT22;1688;51.000;13.684;2022-07-12T04:21:37;16.50;99.90
3350;DHT22;1688;51.000;13.684;2022-07-12T04:24:03;16.50;99.90
3350;DHT22;1688;51.000;13.684;2022-07-12T04:26:29;16.50;99.90
3350;DHT22;1688;51.000;13.684;2022-07-12T04:28:55;16.60;99.90
3350;DHT22;1688;51.000;13.684;2022-07-12T04:31:21;16.60;99.90
3350;DHT22;1688;51.000;13.684;2022-07-12T04:33:46;16.70;99.90
3350;DHT22;1688;51.000;13.684;2022-07-12T04:36:13;16.80;99.90
3350;DHT22;1688;51.000;13.684;2022-07-12T04:38:38;16.90;99.90
3350;DHT22;1688;51.000;13.684;2022-07-12T04:41:04;16.90;99.90
3350;DHT22;1688;51.000;13.684;2022-07-12T04:43:31;16.90;99.90
3350;DHT22;1688;51.000;13.684;2022-07-12T04:46:05;17.00;99.90
3350;DHT22;1688;51.000;13.684;2022-07-12T04:48:32;17.00;99.90
3350;DHT22;1688;51.000;13.684;2022-07-12T04:50:58;17.00;99.90
3350;DHT22;1688;51.000;13.684;2022-07-12T04:53:24;17.00;99.90
3350;DHT22;1688;51.000;13.684;2022-07-12T04:55:54;17.00;99.90
3350;DHT22;1688;51.000;13.684;2022-07-12T04:58:21;17.00;99.90
3350;DHT22;1688;51.000;13.684;2022-07-12T05:00:47;17.00;99.90
3350;DHT22;1688;51.000;13.684;2022-07-12T05:03:13;17.10;99.90
3350;DHT22;1688;51.000;13.684;2022-07-12T05:05:38;17.10;99.90
3350;DHT22;1688;51.000;13.684;2022-07-12T05:08:05;17.20;99.90
3350;DHT22;1688;51.000;13.684;2022-07-12T05:10:31;17.30;99.90
3350;DHT22;1688;51.000;13.684;2022-07-12T05:12:56;17.30;99.90
3350;DHT22;1688;51.000;13.684;2022-07-12T05:15:22;17.40;99.90
3350;DHT22;1688;51.000;13.684;2022-07-12T05:17:48;17.40;99.90
3350;DHT22;1688;51.000;13.684;2022-07-12T05:20:14;17.50;99.90
3350;DHT22;1688;51.000;13.684;2022-07-12T05:22:40;17.50;99.90
3350;DHT22;1688;51.000;13.684;2022-07-12T05:25:09;17.60;99.90
3350;DHT22;1688;51.000;13.684;2022-07-12T05:27:35;17.60;99.90
3350;DHT22;1688;51.000;13.684;2022-07-12T05:30:02;17.70;99.90
3350;DHT22;1688;51.000;13.684;2022-07-12T05:32:28;17.80;99.90
3350;DHT22;1688;51.000;13.684;2022-07-12T05:34:54;17.80;99.90
3350;DHT22;1688;51.000;13.684;2022-07-12T05:37:20;17.80;99.90
3350;DHT22;1688;51.000;13.684;2022-07-12T05:39:46;17.90;99.90
3350;DHT22;1688;51.000;13.684;2022-07-12T05:42:11;17.90;99.90
3350;DHT22;1688;51.000;13.684;2022-07-12T05:44:37;17.90;99.90
3350;DHT22;1688;51.000;13.684;2022-07-12T05:47:03;18.00;99.90
3350;DHT22;1688;51.000;13.684;2022-07-12T05:49:29;18.10;99.90
3350;DHT22;1688;51.000;13.684;2022-07-12T05:51:55;18.20;99.90
3350;DHT22;1688;51.000;13.684;2022-07-12T05:54:39;18.30;99.90
3350;DHT22;1688;51.000;13.684;2022-07-12T05:57:05;18.40;99.90
3350;DHT22;1688;51.000;13.684;2022-07-12T05:59:30;18.50;99.90
3350;DHT22;1688;51.000;13.684;2022-07-12T06:01:56;18.60;99.90
3350;DHT22;1688;51.000;13.684;2022-07-12T06:04:22;18.70;99.90
3350;DHT22;1688;51.000;13.684;2022-07-12T06:06:48;18.80;99.90
3350;DHT22;1688;51.000;13.684;2022-07-12T06:09:14;19.00;99.90
3350;DHT22;1688;51.000;13.684;2022-07-12T06:11:40;19.10;99.90
3350;DHT22;1688;51.000;13.684;2022-07-12T06:14:05;19.20;99.90
3350;DHT22;1688;51.000;13.684;2022-07-12T06:16:31;19.40;99.90
3350;DHT22;1688;51.000;13.684;2022-07-12T06:18:57;19.50;99.90
3350;DHT22;1688;51.000;13.684;2022-07-12T06:21:23;19.70;99.90
3350;DHT22;1688;51.000;13.684;2022-07-12T06:23:48;19.70;99.90
3350;DHT22;1688;51.000;13.684;2022-07-12T06:26:14;19.80;99.90
3350;DHT22;1688;51.000;13.684;2022-07-12T06:28:40;19.90;99.90
3350;DHT22;1688;51.000;13.684;2022-07-12T06:31:06;20.00;99.90
3350;DHT22;1688;51.000;13.684;2022-07-12T06:33:32;20.00;99.90
3350;DHT22;1688;51.000;13.684;2022-07-12T06:35:58;20.00;99.90
3350;DHT22;1688;51.000;13.684;2022-07-12T06:38:23;20.10;99.90
3350;DHT22;1688;51.000;13.684;2022-07-12T06:40:49;20.10;99.90
3350;DHT22;1688;51.000;13.684;2022-07-12T06:43:15;20.10;99.90
3350;DHT22;1688;51.000;13.684;2022-07-12T06:45:41;20.10;99.90
3350;DHT22;1688;51.000;13.684;2022-07-12T06:48:09;20.10;99.90
3350;DHT22;1688;51.000;13.684;2022-07-12T06:50:35;20.10;99.90
3350;DHT22;1688;51.000;13.684;2022-07-12T06:53:01;20.30;99.90
3350;DHT22;1688;51.000;13.684;2022-07-12T06:55:27;20.40;99.90
3350;DHT22;1688;51.000;13.684;2022-07-12T06:57:53;20.60;99.90
3350;DHT22;1688;51.000;13.684;2022-07-12T07:00:18;20.90;99.90
3350;DHT22;1688;51.000;13.684;2022-07-12T07:02:44;21.00;99.90
3350;DHT22;1688;51.000;13.684;2022-07-12T07:05:10;21.20;99.90
3350;DHT22;1688;51.000;13.684;2022-07-12T07:07:37;21.40;99.90
3350;DHT22;1688;51.000;13.684;2022-07-12T07:10:03;21.50;99.90
3350;DHT22;1688;51.000;13.684;2022-07-12T07:12:29;21.50;99.90
3350;DHT22;1688;51.000;13.684;2022-07-12T07:14:55;21.50;99.90
3350;DHT22;1688;51.000;13.684;2022-07-12T07:17:21;21.70;99.90
3350;DHT22;1688;51.000;13.684;2022-07-12T07:19:47;21.90;99.90
3350;DHT22;1688;51.000;13.684;2022-07-12T07:22:13;21.90;99.90
3350;DHT22;1688;51.000;13.684;2022-07-12T07:24:39;21.90;99.90
3350;DHT22;1688;51.000;13.684;2022-07-12T07:27:05;22.00;99.90
3350;DHT22;1688;51.000;13.684;2022-07-12T07:29:31;21.90;99.90
3350;DHT22;1688;51.000;13.684;2022-07-12T07:32:16;22.00;99.90
3350;DHT22;1688;51.000;13.684;2022-07-12T07:34:41;21.90;99.90
3350;DHT22;1688;51.000;13.684;2022-07-12T07:37:08;22.00;99.90
3350;DHT22;1688;51.000;13.684;2022-07-12T07:39:34;22.20;99.90
3350;DHT22;1688;51.000;13.684;2022-07-12T07:42:01;22.30;99.90
3350;DHT22;1688;51.000;13.684;2022-07-12T07:44:27;22.40;99.90
3350;DHT22;1688;51.000;13.684;2022-07-12T07:46:53;22.50;99.80
3350;DHT22;1688;51.000;13.684;2022-07-12T07:49:19;22.70;99.40
3350;DHT22;1688;51.000;13.684;2022-07-12T07:51:45;22.90;98.90
3350;DHT22;1688;51.000;13.684;2022-07-12T07:54:11;22.80;97.90
3350;DHT22;1688;51.000;13.684;2022-07-12T07:56:37;22.80;98.20
3350;DHT22;1688;51.000;13.684;2022-07-12T07:59:03;22.90;98.10
3350;DHT22;1688;51.000;13.684;2022-07-12T08:01:29;23.20;97.70
3350;DHT22;1688;51.000;13.684;2022-07-12T08:04:15;23.30;97.20
3350;DHT22;1688;51.000;13.684;2022-07-12T08:06:41;23.30;96.70
3350;DHT22;1688;51.000;13.684;2022-07-12T08:09:08;23.40;96.60
3350;DHT22;1688;51.000;13.684;2022-07-12T08:11:35;23.30;95.30
3350;DHT22;1688;51.000;13.684;2022-07-12T08:14:02;23.20;95.70
3350;DHT22;1688;51.000;13.684;2022-07-12T08:16:28;23.20;96.00
3350;DHT22;1688;51.000;13.684;2022-07-12T08:18:54;23.20;96.00
3350;DHT22;1688;51.000;13.684;2022-07-12T08:21:21;23.20;94.80
3350;DHT22;1688;51.000;13.684;2022-07-12T08:23:47;23.20;95.30
3350;DHT22;1688;51.000;13.684;2022-07-12T08:26:13;23.30;94.70
3350;DHT22;1688;51.000;13.684;2022-07-12T08:28:40;23.10;94.60
3350;DHT22;1688;51.000;13.684;2022-07-12T08:31:05;23.20;94.50
3350;DHT22;1688;51.000;13.684;2022-07-12T08:33:31;23.10;93.40
3350;DHT22;1688;51.000;13.684;2022-07-12T08:35:57;22.80;93.80
3350;DHT22;1688;51.000;13.684;2022-07-12T08:38:23;22.80;94.30
3350;DHT22;1688;51.000;13.684;2022-07-12T08:40:49;23.20;94.30
3350;DHT22;1688;51.000;13.684;2022-07-12T08:43:15;23.50;93.50
3350;DHT22;1688;51.000;13.684;2022-07-12T08:45:41;23.50;92.60
3350;DHT22;1688;51.000;13.684;2022-07-12T08:48:08;23.40;92.80
3350;DHT22;1688;51.000;13.684;2022-07-12T08:50:34;23.50;93.10
3350;DHT22;1688;51.000;13.684;2022-07-12T08:53:00;23.70;92.50
3350;DHT22;1688;51.000;13.684;2022-07-12T08:55:34;23.60;92.30
3350;DHT22;1688;51.000;13.684;2022-07-12T08:58:03;23.50;92.40
3350;DHT22;1688;51.000;13.684;2022-07-12T09:00:32;23.40;92.20
3350;DHT22;1688;51.000;13.684;2022-07-12T09:03:00;23.20;91.40
3350;DHT22;1688;51.000;13.684;2022-07-12T09:05:31;23.20;91.10
3350;DHT22;1688;51.000;13.684;2022-07-12T09:08:05;23.20;91.20
3350;DHT22;1688;51.000;13.684;2022-07-12T09:10:32;23.00;92.00
3350;DHT22;1688;51.000;13.684;2022-07-12T09:12:58;22.90;91.50
3350;DHT22;1688;51.000;13.684;2022-07-12T09:15:25;22.90;92.20
3350;DHT22;1688;51.000;13.684;2022-07-12T09:17:59;23.00;92.30
3350;DHT22;1688;51.000;13.684;2022-07-12T09:20:52;22.80;91.20
3350;DHT22;1688;51.000;13.684;2022-07-12T09:23:18;22.70;92.60
3350;DHT22;1688;51.000;13.684;2022-07-12T09:25:45;22.80;91.40
3350;DHT22;1688;51.000;13.684;2022-07-12T09:28:11;23.10;83.90
3350;DHT22;1688;51.000;13.684;2022-07-12T09:30:50;22.90;83.90
3350;DHT22;1688;51.000;13.684;2022-07-12T09:33:18;23.20;87.80
3350;DHT22;1688;51.000;13.684;2022-07-12T09:36:03;23.70;87.10
3350;DHT22;1688;51.000;13.684;2022-07-12T09:38:54;24.10;85.80
3350;DHT22;1688;51.000;13.684;2022-07-12T09:41:22;24.30;81.80
3350;DHT22;1688;51.000;13.684;2022-07-12T09:43:49;24.00;80.40
3350;DHT22;1688;51.000;13.684;2022-07-12T09:46:15;23.90;81.00
3350;DHT22;1688;51.000;13.684;2022-07-12T09:48:43;24.10;81.80
3350;DHT22;1688;51.000;13.684;2022-07-12T09:51:13;24.30;79.60
3350;DHT22;1688;51.000;13.684;2022-07-12T09:53:47;24.30;80.00
3350;DHT22;1688;51.000;13.684;2022-07-12T09:56:15;24.10;80.30
3350;DHT22;1688;51.000;13.684;2022-07-12T10:01:17;24.50;77.50
3350;DHT22;1688;51.000;13.684;2022-07-12T10:03:43;24.90;78.50
3350;DHT22;1688;51.000;13.684;2022-07-12T10:06:12;24.90;74.60
3350;DHT22;1688;51.000;13.684;2022-07-12T10:08:39;24.80;76.30
3350;DHT22;1688;51.000;13.684;2022-07-12T10:11:06;24.80;76.20
3350;DHT22;1688;51.000;13.684;2022-07-12T10:13:33;24.90;77.10
3350;DHT22;1688;51.000;13.684;2022-07-12T10:16:02;25.10;74.30
3350;DHT22;1688;51.000;13.684;2022-07-12T10:18:29;25.20;73.10
3350;DHT22;1688;51.000;13.684;2022-07-12T10:20:55;25.10;74.50
3350;DHT22;1688;51.000;13.684;2022-07-12T10:23:35;25.30;75.80
3350;DHT22;1688;51.000;13.684;2022-07-12T10:29:00;25.80;73.60
3350;DHT22;1688;51.000;13.684;2022-07-12T10:31:38;25.80;70.30
3350;DHT22;1688;51.000;13.684;2022-07-12T10:34:20;25.70;67.80
3350;DHT22;1688;51.000;13.684;2022-07-12T10:39:25;25.90;67.80
3350;DHT22;1688;51.000;13.684;2022-07-12T10:44:41;26.10;67.20
3350;DHT22;1688;51.000;13.684;2022-07-12T10:47:09;26.00;62.90
3350;DHT22;1688;51.000;13.684;2022-07-12T10:49:35;25.80;62.60
3350;DHT22;1688;51.000;13.684;2022-07-12T10:54:41;25.40;67.50
3350;DHT22;1688;51.000;13.684;2022-07-12T10:57:07;25.70;66.40
3350;DHT22;1688;51.000;13.684;2022-07-12T10:59:36;25.90;62.80
3350;DHT22;1688;51.000;13.684;2022-07-12T11:02:03;25.90;61.70
3350;DHT22;1688;51.000;13.684;2022-07-12T11:04:29;25.90;61.40
3350;DHT22;1688;51.000;13.684;2022-07-12T11:06:55;25.70;60.60
3350;DHT22;1688;51.000;13.684;2022-07-12T11:09:23;25.80;60.50
3350;DHT22;1688;51.000;13.684;2022-07-12T11:11:51;26.20;59.80
3350;DHT22;1688;51.000;13.684;2022-07-12T11:14:25;26.40;59.90
3350;DHT22;1688;51.000;13.684;2022-07-12T11:16:52;26.40;59.80
3350;DHT22;1688;51.000;13.684;2022-07-12T11:19:22;26.30;59.50
3350;DHT22;1688;51.000;13.684;2022-07-12T11:21:49;26.30;60.50
3350;DHT22;1688;51.000;13.684;2022-07-12T11:24:32;26.40;60.40
3350;DHT22;1688;51.000;13.684;2022-07-12T11:26:58;26.50;58.70
3350;DHT22;1688;51.000;13.684;2022-07-12T11:29:25;26.40;58.70
3350;DHT22;1688;51.000;13.684;2022-07-12T11:32:00;26.40;59.20
3350;DHT22;1688;51.000;13.684;2022-07-12T11:34:26;26.10;59.50
3350;DHT22;1688;51.000;13.684;2022-07-12T11:36:56;26.10;59.20
3350;DHT22;1688;51.000;13.684;2022-07-12T11:42:00;26.20;60.70
3350;DHT22;1688;51.000;13.684;2022-07-12T11:44:41;26.70;61.60
3350;DHT22;1688;51.000;13.684;2022-07-12T11:47:08;26.80;57.30
3350;DHT22;1688;51.000;13.684;2022-07-12T11:49:34;27.10;58.90
3350;DHT22;1688;51.000;13.684;2022-07-12T11:52:00;27.70;57.70
3350;DHT22;1688;51.000;13.684;2022-07-12T11:54:26;28.40;54.30
3350;DHT22;1688;51.000;13.684;2022-07-12T11:57:09;29.50;53.90
3350;DHT22;1688;51.000;13.684;2022-07-12T11:59:35;30.20;51.90
3350;DHT22;1688;51.000;13.684;2022-07-12T12:02:06;31.00;50.90
3350;DHT22;1688;51.000;13.684;2022-07-12T12:04:47;31.40;49.90
3350;DHT22;1688;51.000;13.684;2022-07-12T12:07:14;31.20;48.40
3350;DHT22;1688;51.000;13.684;2022-07-12T12:10:00;30.20;49.90
3350;DHT22;1688;51.000;13.684;2022-07-12T12:12:44;29.40;50.20
3350;DHT22;1688;51.000;13.684;2022-07-12T12:15:21;28.90;50.70
3350;DHT22;1688;51.000;13.684;2022-07-12T12:20:21;27.90;51.90
3350;DHT22;1688;51.000;13.684;2022-07-12T12:22:55;27.70;52.40
3350;DHT22;1688;51.000;13.684;2022-07-12T12:25:23;27.50;52.40
3350;DHT22;1688;51.000;13.684;2022-07-12T12:28:00;27.40;52.60
3350;DHT22;1688;51.000;13.684;2022-07-12T12:30:30;27.30;53.50
3350;DHT22;1688;51.000;13.684;2022-07-12T12:32:57;27.40;53.30
3350;DHT22;1688;51.000;13.684;2022-07-12T12:35:34;27.20;52.80
3350;DHT22;1688;51.000;13.684;2022-07-12T12:38:01;27.00;53.20
3350;DHT22;1688;51.000;13.684;2022-07-12T12:40:29;26.80;53.60
3350;DHT22;1688;51.000;13.684;2022-07-12T12:43:25;26.70;53.60
3350;DHT22;1688;51.000;13.684;2022-07-12T12:45:55;26.70;54.10
3350;DHT22;1688;51.000;13.684;2022-07-12T12:48:23;26.70;53.10
3350;DHT22;1688;51.000;13.684;2022-07-12T12:50:51;26.60;52.60
3350;DHT22;1688;51.000;13.684;2022-07-12T12:55:46;26.50;53.90
3350;DHT22;1688;51.000;13.684;2022-07-12T12:58:14;26.50;53.60
3350;DHT22;1688;51.000;13.684;2022-07-12T13:00:45;26.50;54.10
3350;DHT22;1688;51.000;13.684;2022-07-12T13:03:14;26.60;54.20
3350;DHT22;1688;51.000;13.684;2022-07-12T13:05:40;26.70;53.20
3350;DHT22;1688;51.000;13.684;2022-07-12T13:08:09;26.30;53.40
3350;DHT22;1688;51.000;13.684;2022-07-12T13:10:36;26.10;53.30
3350;DHT22;1688;51.000;13.684;2022-07-12T13:13:03;25.90;53.50
3350;DHT22;1688;51.000;13.684;2022-07-12T13:15:30;26.00;54.60
3350;DHT22;1688;51.000;13.684;2022-07-12T13:17:56;26.30;55.30
3350;DHT22;1688;51.000;13.684;2022-07-12T13:20:23;26.70;54.50
3350;DHT22;1688;51.000;13.684;2022-07-12T13:22:49;27.00;55.70
3350;DHT22;1688;51.000;13.684;2022-07-12T13:25:15;27.50;54.30
3350;DHT22;1688;51.000;13.684;2022-07-12T13:27:42;27.50;53.00
3350;DHT22;1688;51.000;13.684;2022-07-12T13:30:13;27.60;53.00
3350;DHT22;1688;51.000;13.684;2022-07-12T13:32:40;27.70;53.20
3350;DHT22;1688;51.000;13.684;2022-07-12T13:35:07;27.90;51.40
3350;DHT22;1688;51.000;13.684;2022-07-12T13:37:35;28.10;52.40
3350;DHT22;1688;51.000;13.684;2022-07-12T13:40:01;28.30;51.30
3350;DHT22;1688;51.000;13.684;2022-07-12T13:42:49;28.30;51.30
3350;DHT22;1688;51.000;13.684;2022-07-12T13:45:21;28.40;52.00
3350;DHT22;1688;51.000;13.684;2022-07-12T13:47:47;28.60;51.00
3350;DHT22;1688;51.000;13.684;2022-07-12T13:50:15;29.00;51.20
3350;DHT22;1688;51.000;13.684;2022-07-12T13:52:43;28.60;50.00
3350;DHT22;1688;51.000;13.684;2022-07-12T13:55:10;28.30;51.30
3350;DHT22;1688;51.000;13.684;2022-07-12T13:57:37;28.30;51.60
3350;DHT22;1688;51.000;13.684;2022-07-12T14:00:08;28.50;52.40
3350;DHT22;1688;51.000;13.684;2022-07-12T14:02:36;28.50;51.20
3350;DHT22;1688;51.000;13.684;2022-07-12T14:05:03;28.50;50.30
3350;DHT22;1688;51.000;13.684;2022-07-12T14:07:30;28.30;50.30
3350;DHT22;1688;51.000;13.684;2022-07-12T14:09:56;28.10;52.00
3350;DHT22;1688;51.000;13.684;2022-07-12T14:12:22;28.10;52.20
3350;DHT22;1688;51.000;13.684;2022-07-12T14:14:48;27.90;52.50
3350;DHT22;1688;51.000;13.684;2022-07-12T14:20:03;27.90;52.00
3350;DHT22;1688;51.000;13.684;2022-07-12T14:22:30;27.70;51.50
3350;DHT22;1688;51.000;13.684;2022-07-12T14:24:56;27.60;52.00
3350;DHT22;1688;51.000;13.684;2022-07-12T14:27:23;27.50;51.80
3350;DHT22;1688;51.000;13.684;2022-07-12T14:29:49;27.40;51.40
3350;DHT22;1688;51.000;13.684;2022-07-12T14:32:17;27.00;52.30
3350;DHT22;1688;51.000;13.684;2022-07-12T14:34:46;26.80;52.50
3350;DHT22;1688;51.000;13.684;2022-07-12T14:37:12;26.80;53.40
3350;DHT22;1688;51.000;13.684;2022-07-12T14:39:37;27.10;53.20
3350;DHT22;1688;51.000;13.684;2022-07-12T14:42:04;27.40;53.30
3350;DHT22;1688;51.000;13.684;2022-07-12T14:44:30;27.50;53.40
3350;DHT22;1688;51.000;13.684;2022-07-12T14:46:56;27.50;52.70
3350;DHT22;1688;51.000;13.684;2022-07-12T14:49:22;27.40;52.10
3350;DHT22;1688;51.000;13.684;2022-07-12T14:51:48;27.30;52.50
3350;DHT22;1688;51.000;13.684;2022-07-12T14:54:14;27.20;52.70
3350;DHT22;1688;51.000;13.684;2022-07-12T14:56:40;27.00;53.40
3350;DHT22;1688;51.000;13.684;2022-07-12T14:59:07;26.80;53.90
3350;DHT22;1688;51.000;13.684;2022-07-12T15:01:33;26.50;54.10
3350;DHT22;1688;51.000;13.684;2022-07-12T15:03:59;26.60;54.50
3350;DHT22;1688;51.000;13.684;2022-07-12T15:06:25;26.60;53.60
3350;DHT22;1688;51.000;13.684;2022-07-12T15:08:53;26.70;53.60
3350;DHT22;1688;51.000;13.684;2022-07-12T15:11:20;26.60;53.90
3350;DHT22;1688;51.000;13.684;2022-07-12T15:13:48;26.60;54.40
3350;DHT22;1688;51.000;13.684;2022-07-12T15:16:17;26.60;53.50
3350;DHT22;1688;51.000;13.684;2022-07-12T15:18:42;26.40;53.30
3350;DHT22;1688;51.000;13.684;2022-07-12T15:21:08;26.20;54.30
3350;DHT22;1688;51.000;13.684;2022-07-12T15:23:34;26.10;54.10
3350;DHT22;1688;51.000;13.684;2022-07-12T15:26:00;26.40;54.60
3350;DHT22;1688;51.000;13.684;2022-07-12T15:28:27;26.70;54.90
3350;DHT22;1688;51.000;13.684;2022-07-12T15:30:55;26.90;54.10
3350;DHT22;1688;51.000;13.684;2022-07-12T15:33:21;27.10;53.90
3350;DHT22;1688;51.000;13.684;2022-07-12T15:35:47;27.30;52.00
3350;DHT22;1688;51.000;13.684;2022-07-12T15:38:13;27.30;51.80
3350;DHT22;1688;51.000;13.684;2022-07-12T15:40:39;27.40;51.70
3350;DHT22;1688;51.000;13.684;2022-07-12T15:43:05;27.60;53.20
3350;DHT22;1688;51.000;13.684;2022-07-12T15:45:31;27.80;51.70
3350;DHT22;1688;51.000;13.684;2022-07-12T15:47:56;27.80;52.10
3350;DHT22;1688;51.000;13.684;2022-07-12T15:50:23;27.80;53.00
3350;DHT22;1688;51.000;13.684;2022-07-12T15:52:49;27.80;51.90
3350;DHT22;1688;51.000;13.684;2022-07-12T15:55:33;27.70;51.80
3350;DHT22;1688;51.000;13.684;2022-07-12T15:58:00;27.20;52.70
3350;DHT22;1688;51.000;13.684;2022-07-12T16:00:27;27.10;52.80
3350;DHT22;1688;51.000;13.684;2022-07-12T16:02:53;27.10;53.40
3350;DHT22;1688;51.000;13.684;2022-07-12T16:05:20;27.10;53.00
3350;DHT22;1688;51.000;13.684;2022-07-12T16:07:46;27.10;52.20
3350;DHT22;1688;51.000;13.684;2022-07-12T16:10:14;27.10;52.30
3350;DHT22;1688;51.000;13.684;2022-07-12T16:12:40;27.10;52.50
3350;DHT22;1688;51.000;13.684;2022-07-12T16:15:07;27.00;52.80